sensor_id;sensor_type;location;lat;lon;timestamp;pressure;altitude;pressure_sealevel;temperature;humidity
28312;BME280;15572;48.810;9.148;2023-06-26T00:00:53;97996.66;;;20.68;59.09
28312;BME280;15572;48.810;9.148;2023-06-26T00:05:50;98004.31;;;20.61;59.50
28312;BME280;15572;48.810;9.148;2023-06-26T00:10:47;98002.63;;;20.54;59.57
28312;BME280;15572;48.810;9.148;2023-06-26T00:15:46;98007.00;;;20.50;59.43
28312;BME280;15572;48.810;9.148;2023-06-26T00:20:43;98006.66;;;20.42;60.30
28312;BME280;15572;48.810;9.148;2023-06-26T00:25:40;98008.25;;;20.33;60.91
28312;BME280;15572;48.810;9.148;2023-06-26T00:30:37;98002.75;;;20.33;61.43
28312;BME280;15572;48.810;9.148;2023-06-26T00:35:33;98006.22;;;20.23;61.71
28312;BME280;15572;48.810;9.148;2023-06-26T00:40:30;97997.09;;;20.17;61.83
28312;BME280;15572;48.810;9.148;2023-06-26T00:45:28;97998.16;;;20.11;62.35
28312;BME280;15572;48.810;9.148;2023-06-26T00:50:25;97991.75;;;20.01;62.84
28312;BME280;15572;48.810;9.148;2023-06-26T00:55:21;97992.75;;;19.90;64.21
28312;BME280;15572;48.810;9.148;2023-06-26T01:00:18;97990.47;;;19.82;65.00
28312;BME280;15572;48.810;9.148;2023-06-26T01:05:16;97992.34;;;19.76;65.44
28312;BME280;15572;48.810;9.148;2023-06-26T01:10:15;97988.19;;;19.73;65.48
28312;BME280;15572;48.810;9.148;2023-06-26T01:15:12;97987.91;;;19.70;65.65
28312;BME280;15572;48.810;9.148;2023-06-26T01:20:09;97987.84;;;19.65;65.93
28312;BME280;15572;48.810;9.148;2023-06-26T01:25:13;97981.78;;;19.63;66.39
28312;BME280;15572;48.810;9.148;2023-06-26T01:30:16;97975.94;;;19.54;67.25
28312;BME280;15572;48.810;9.148;2023-06-26T01:35:13;97971.78;;;19.52;67.31
28312;BME280;15572;48.810;9.148;2023-06-26T01:40:11;97968.97;;;19.47;67.77
28312;BME280;15572;48.810;9.148;2023-06-26T01:45:12;97971.16;;;19.45;68.04
28312;BME280;15572;48.810;9.148;2023-06-26T01:50:16;97976.06;;;19.43;68.82
28312;BME280;15572;48.810;9.148;2023-06-26T01:55:20;97962.91;;;19.45;68.75
28312;BME280;15572;48.810;9.148;2023-06-26T02:00:19;97967.94;;;19.53;68.73
28312;BME280;15572;48.810;9.148;2023-06-26T02:05:18;97960.88;;;19.35;69.41
28312;BME280;15572;48.810;9.148;2023-06-26T02:10:14;97964.66;;;19.07;70.76
28312;BME280;15572;48.810;9.148;2023-06-26T02:15:11;97964.28;;;18.99;71.41
28312;BME280;15572;48.810;9.148;2023-06-26T02:20:08;97961.31;;;19.00;71.74
28312;BME280;15572;48.810;9.148;2023-06-26T02:25:07;97958.44;;;18.90;72.86
28312;BME280;15572;48.810;9.148;2023-06-26T02:30:05;97969.94;;;18.70;74.42
28312;BME280;15572;48.810;9.148;2023-06-26T02:35:02;97976.19;;;18.66;74.50
28312;BME280;15572;48.810;9.148;2023-06-26T02:39:59;97964.03;;;18.57;75.15
28312;BME280;15572;48.810;9.148;2023-06-26T02:44:57;97965.38;;;18.37;77.21
28312;BME280;15572;48.810;9.148;2023-06-26T02:49:53;97960.53;;;18.28;77.55
28312;BME280;15572;48.810;9.148;2023-06-26T02:54:49;97962.38;;;18.22;77.52
28312;BME280;15572;48.810;9.148;2023-06-26T02:59:46;97959.31;;;18.35;77.48
28312;BME280;15572;48.810;9.148;2023-06-26T03:04:44;97963.03;;;18.29;78.37
28312;BME280;15572;48.810;9.148;2023-06-26T03:09:40;97959.06;;;18.20;79.83
28312;BME280;15572;48.810;9.148;2023-06-26T03:14:37;97963.28;;;18.11;80.28
28312;BME280;15572;48.810;9.148;2023-06-26T03:19:33;97961.06;;;18.08;80.50
28312;BME280;15572;48.810;9.148;2023-06-26T03:24:31;97968.63;;;18.18;80.73
28312;BME280;15572;48.810;9.148;2023-06-26T03:29:28;97967.38;;;18.08;80.99
28312;BME280;15572;48.810;9.148;2023-06-26T03:34:25;97973.25;;;18.17;81.10
28312;BME280;15572;48.810;9.148;2023-06-26T03:39:22;97965.56;;;17.97;82.86
28312;BME280;15572;48.810;9.148;2023-06-26T03:44:20;97976.03;;;17.84;84.98
28312;BME280;15572;48.810;9.148;2023-06-26T03:49:16;97972.78;;;17.87;84.85
28312;BME280;15572;48.810;9.148;2023-06-26T03:54:13;97965.41;;;17.87;84.93
28312;BME280;15572;48.810;9.148;2023-06-26T03:59:10;97974.69;;;17.86;84.84
28312;BME280;15572;48.810;9.148;2023-06-26T04:04:08;97972.25;;;17.90;84.68
28312;BME280;15572;48.810;9.148;2023-06-26T04:09:05;97970.44;;;17.95;85.35
28312;BME280;15572;48.810;9.148;2023-06-26T04:14:01;97978.03;;;18.05;84.92
28312;BME280;15572;48.810;9.148;2023-06-26T04:18:58;97983.47;;;18.22;84.14
28312;BME280;15572;48.810;9.148;2023-06-26T04:23:55;97980.97;;;18.37;83.81
28312;BME280;15572;48.810;9.148;2023-06-26T04:28:52;97982.50;;;18.49;83.50
28312;BME280;15572;48.810;9.148;2023-06-26T04:33:48;97985.84;;;18.68;82.42
28312;BME280;15572;48.810;9.148;2023-06-26T04:38:46;97982.16;;;18.79;82.23
28312;BME280;15572;48.810;9.148;2023-06-26T04:43:44;97978.31;;;18.80;82.94
28312;BME280;15572;48.810;9.148;2023-06-26T04:48:41;97976.63;;;18.96;82.75
28312;BME280;15572;48.810;9.148;2023-06-26T04:53:38;97977.34;;;19.13;81.32
28312;BME280;15572;48.810;9.148;2023-06-26T04:58:34;97975.41;;;19.35;79.87
28312;BME280;15572;48.810;9.148;2023-06-26T05:03:32;97976.25;;;19.58;78.68
28312;BME280;15572;48.810;9.148;2023-06-26T05:08:30;97969.84;;;19.79;77.91
28312;BME280;15572;48.810;9.148;2023-06-26T05:13:26;97965.94;;;20.02;77.20
28312;BME280;15572;48.810;9.148;2023-06-26T05:18:23;97975.72;;;20.25;76.29
28312;BME280;15572;48.810;9.148;2023-06-26T05:23:21;97984.19;;;20.50;75.03
28312;BME280;15572;48.810;9.148;2023-06-26T05:28:20;97991.75;;;20.75;73.90
28312;BME280;15572;48.810;9.148;2023-06-26T05:33:18;97985.00;;;20.97;72.92
28312;BME280;15572;48.810;9.148;2023-06-26T05:38:15;97988.44;;;21.20;71.80
28312;BME280;15572;48.810;9.148;2023-06-26T05:43:13;97993.44;;;21.43;70.71
28312;BME280;15572;48.810;9.148;2023-06-26T05:48:10;97989.09;;;21.62;69.61
28312;BME280;15572;48.810;9.148;2023-06-26T05:53:07;97987.72;;;21.85;68.22
28312;BME280;15572;48.810;9.148;2023-06-26T05:58:04;97983.94;;;22.01;67.89
28312;BME280;15572;48.810;9.148;2023-06-26T06:03:03;97990.56;;;22.15;67.54
28312;BME280;15572;48.810;9.148;2023-06-26T06:07:59;97989.97;;;22.34;66.63
28312;BME280;15572;48.810;9.148;2023-06-26T06:12:56;97989.38;;;22.82;63.41
28312;BME280;15572;48.810;9.148;2023-06-26T06:17:52;97988.22;;;23.03;62.53
28312;BME280;15572;48.810;9.148;2023-06-26T06:22:50;97993.34;;;23.30;61.71
28312;BME280;15572;48.810;9.148;2023-06-26T06:27:46;97993.94;;;23.22;61.78
28312;BME280;15572;48.810;9.148;2023-06-26T06:32:43;98002.25;;;23.17;61.93
28312;BME280;15572;48.810;9.148;2023-06-26T06:37:39;98002.25;;;23.17;62.05
28312;BME280;15572;48.810;9.148;2023-06-26T06:42:37;98002.50;;;23.21;61.62
28312;BME280;15572;48.810;9.148;2023-06-26T06:47:33;98001.13;;;23.23;61.23
28312;BME280;15572;48.810;9.148;2023-06-26T06:52:30;98005.50;;;23.29;61.12
28312;BME280;15572;48.810;9.148;2023-06-26T06:57:26;97998.28;;;23.38;60.64
28312;BME280;15572;48.810;9.148;2023-06-26T07:02:24;97999.94;;;23.49;59.92
28312;BME280;15572;48.810;9.148;2023-06-26T07:07:21;98009.81;;;23.61;59.22
28312;BME280;15572;48.810;9.148;2023-06-26T07:12:17;98002.53;;;23.75;58.75
28312;BME280;15572;48.810;9.148;2023-06-26T07:17:14;97993.88;;;23.91;58.32
28312;BME280;15572;48.810;9.148;2023-06-26T07:22:11;97993.75;;;24.07;57.67
28312;BME280;15572;48.810;9.148;2023-06-26T07:27:08;98000.00;;;24.22;56.99
28312;BME280;15572;48.810;9.148;2023-06-26T07:32:05;97999.72;;;24.53;55.80
28312;BME280;15572;48.810;9.148;2023-06-26T07:37:02;98007.84;;;24.73;55.21
28312;BME280;15572;48.810;9.148;2023-06-26T07:41:59;98003.28;;;24.87;54.49
28312;BME280;15572;48.810;9.148;2023-06-26T07:46:56;98005.16;;;25.39;50.11
28312;BME280;15572;48.810;9.148;2023-06-26T07:51:53;98001.28;;;25.64;49.80
28312;BME280;15572;48.810;9.148;2023-06-26T07:56:53;97998.28;;;25.79;49.64
28312;BME280;15572;48.810;9.148;2023-06-26T08:01:53;98001.03;;;25.98;48.75
28312;BME280;15572;48.810;9.148;2023-06-26T08:06:51;97993.84;;;26.16;48.80
28312;BME280;15572;48.810;9.148;2023-06-26T08:11:48;97985.50;;;26.34;46.61
28312;BME280;15572;48.810;9.148;2023-06-26T08:16:44;97991.28;;;26.84;45.04
28312;BME280;15572;48.810;9.148;2023-06-26T08:21:43;97986.19;;;27.18;44.82
28312;BME280;15572;48.810;9.148;2023-06-26T08:26:40;97988.84;;;27.37;43.43
28312;BME280;15572;48.810;9.148;2023-06-26T08:31:36;97988.75;;;27.56;43.91
28312;BME280;15572;48.810;9.148;2023-06-26T08:36:33;97978.53;;;27.65;44.00
28312;BME280;15572;48.810;9.148;2023-06-26T08:41:31;97976.34;;;27.76;42.23
28312;BME280;15572;48.810;9.148;2023-06-26T08:46:28;97983.63;;;27.85;41.13
28312;BME280;15572;48.810;9.148;2023-06-26T08:51:25;97974.09;;;27.78;42.20
28312;BME280;15572;48.810;9.148;2023-06-26T08:56:25;97972.50;;;27.85;42.15
28312;BME280;15572;48.810;9.148;2023-06-26T09:01:24;97983.84;;;28.25;40.74
28312;BME280;15572;48.810;9.148;2023-06-26T09:06:21;97979.84;;;28.39;40.32
28312;BME280;15572;48.810;9.148;2023-06-26T09:11:17;97977.88;;;28.40;40.32
28312;BME280;15572;48.810;9.148;2023-06-26T09:16:25;97977.66;;;28.59;39.64
28312;BME280;15572;48.810;9.148;2023-06-26T09:21:22;97974.75;;;28.64;39.42
28312;BME280;15572;48.810;9.148;2023-06-26T09:26:21;97984.13;;;28.90;39.22
28312;BME280;15572;48.810;9.148;2023-06-26T09:31:18;97974.44;;;29.27;38.67
28312;BME280;15572;48.810;9.148;2023-06-26T09:36:20;97964.69;;;29.64;38.13
28312;BME280;15572;48.810;9.148;2023-06-26T09:41:17;97972.75;;;29.74;37.51
28312;BME280;15572;48.810;9.148;2023-06-26T09:46:15;97975.91;;;29.98;37.45
28312;BME280;15572;48.810;9.148;2023-06-26T09:51:11;97966.50;;;29.77;37.76
28312;BME280;15572;48.810;9.148;2023-06-26T09:56:15;97982.69;;;29.49;38.87
28312;BME280;15572;48.810;9.148;2023-06-26T10:01:13;97968.38;;;29.34;39.24
28312;BME280;15572;48.810;9.148;2023-06-26T10:06:11;97957.28;;;29.51;38.77
28312;BME280;15572;48.810;9.148;2023-06-26T10:11:14;97966.00;;;29.58;39.45
28312;BME280;15572;48.810;9.148;2023-06-26T10:16:13;97949.09;;;29.71;39.76
28312;BME280;15572;48.810;9.148;2023-06-26T10:21:13;97976.69;;;29.73;40.27
28312;BME280;15572;48.810;9.148;2023-06-26T10:26:12;97967.00;;;29.79;40.12
28312;BME280;15572;48.810;9.148;2023-06-26T10:31:11;97978.81;;;29.76;40.98
28312;BME280;15572;48.810;9.148;2023-06-26T10:36:14;97984.16;;;29.38;41.41
28312;BME280;15572;48.810;9.148;2023-06-26T10:41:13;97998.84;;;29.21;42.04
28312;BME280;15572;48.810;9.148;2023-06-26T10:46:11;98012.03;;;29.38;40.80
28312;BME280;15572;48.810;9.148;2023-06-26T10:51:13;97993.38;;;29.56;38.50
28312;BME280;15572;48.810;9.148;2023-06-26T10:56:10;98000.13;;;29.72;38.29
28312;BME280;15572;48.810;9.148;2023-06-26T11:01:23;98001.66;;;30.04;37.38
28312;BME280;15572;48.810;9.148;2023-06-26T11:06:21;97998.41;;;30.53;37.27
28312;BME280;15572;48.810;9.148;2023-06-26T11:11:17;98001.84;;;30.33;38.06
28312;BME280;15572;48.810;9.148;2023-06-26T11:16:15;98007.91;;;30.61;38.10
28312;BME280;15572;48.810;9.148;2023-06-26T11:21:12;98011.81;;;30.77;36.51
28312;BME280;15572;48.810;9.148;2023-06-26T11:26:13;98003.75;;;30.84;37.96
28312;BME280;15572;48.810;9.148;2023-06-26T11:31:23;98008.91;;;30.31;38.49
28312;BME280;15572;48.810;9.148;2023-06-26T11:36:23;98011.03;;;30.08;40.07
28312;BME280;15572;48.810;9.148;2023-06-26T11:41:21;98030.97;;;31.13;39.09
28312;BME280;15572;48.810;9.148;2023-06-26T11:46:17;98027.34;;;31.59;38.94
28312;BME280;15572;48.810;9.148;2023-06-26T11:51:14;98033.56;;;31.94;38.20
28312;BME280;15572;48.810;9.148;2023-06-26T11:56:14;98038.75;;;31.75;38.89
28312;BME280;15572;48.810;9.148;2023-06-26T12:01:15;98038.94;;;31.79;39.29
28312;BME280;15572;48.810;9.148;2023-06-26T12:06:11;98039.84;;;31.53;39.68
28312;BME280;15572;48.810;9.148;2023-06-26T12:11:08;98052.06;;;31.57;39.73
28312;BME280;15572;48.810;9.148;2023-06-26T12:16:06;98044.16;;;31.42;40.56
28312;BME280;15572;48.810;9.148;2023-06-26T12:21:03;98045.44;;;31.53;39.93
28312;BME280;15572;48.810;9.148;2023-06-26T12:26:17;98047.91;;;31.84;39.43
28312;BME280;15572;48.810;9.148;2023-06-26T12:31:16;98036.13;;;31.79;39.90
28312;BME280;15572;48.810;9.148;2023-06-26T12:36:13;98048.41;;;31.48;40.47
28312;BME280;15572;48.810;9.148;2023-06-26T12:41:12;98037.72;;;31.59;40.05
28312;BME280;15572;48.810;9.148;2023-06-26T12:46:10;98036.69;;;31.93;39.14
28312;BME280;15572;48.810;9.148;2023-06-26T12:51:12;98029.16;;;31.85;39.12
28312;BME280;15572;48.810;9.148;2023-06-26T12:56:09;98027.28;;;31.97;38.64
28312;BME280;15572;48.810;9.148;2023-06-26T13:01:07;98021.84;;;32.42;37.54
28312;BME280;15572;48.810;9.148;2023-06-26T13:06:06;98019.59;;;32.36;37.90
28312;BME280;15572;48.810;9.148;2023-06-26T13:11:04;98022.53;;;32.18;37.97
28312;BME280;15572;48.810;9.148;2023-06-26T13:16:00;98034.34;;;32.24;37.33
28312;BME280;15572;48.810;9.148;2023-06-26T13:20:57;98020.03;;;32.38;36.29
28312;BME280;15572;48.810;9.148;2023-06-26T13:25:53;98021.13;;;32.04;36.85
28312;BME280;15572;48.810;9.148;2023-06-26T13:30:51;98034.75;;;32.35;35.64
28312;BME280;15572;48.810;9.148;2023-06-26T13:35:48;98018.97;;;32.09;35.99
28312;BME280;15572;48.810;9.148;2023-06-26T13:40:44;98028.66;;;32.12;35.73
28312;BME280;15572;48.810;9.148;2023-06-26T13:45:41;98007.00;;;31.42;35.15
28312;BME280;15572;48.810;9.148;2023-06-26T13:50:38;98029.91;;;31.35;34.44
28312;BME280;15572;48.810;9.148;2023-06-26T13:55:35;98027.63;;;30.56;34.08
28312;BME280;15572;48.810;9.148;2023-06-26T14:00:34;98016.63;;;30.42;34.81
28312;BME280;15572;48.810;9.148;2023-06-26T14:05:31;98026.13;;;30.41;35.05
28312;BME280;15572;48.810;9.148;2023-06-26T14:10:28;98018.94;;;30.23;34.86
28312;BME280;15572;48.810;9.148;2023-06-26T14:15:25;98019.41;;;29.99;36.07
28312;BME280;15572;48.810;9.148;2023-06-26T14:20:22;98026.13;;;29.98;35.67
28312;BME280;15572;48.810;9.148;2023-06-26T14:25:19;98030.91;;;30.06;35.68
28312;BME280;15572;48.810;9.148;2023-06-26T14:30:17;98045.25;;;29.74;36.18
28312;BME280;15572;48.810;9.148;2023-06-26T14:35:14;98039.22;;;29.89;35.87
28312;BME280;15572;48.810;9.148;2023-06-26T14:40:11;98059.28;;;29.91;35.65
28312;BME280;15572;48.810;9.148;2023-06-26T14:45:09;98056.28;;;29.88;36.21
28312;BME280;15572;48.810;9.148;2023-06-26T14:50:08;98063.25;;;30.07;36.42
28312;BME280;15572;48.810;9.148;2023-06-26T14:55:05;98061.34;;;29.77;37.07
28312;BME280;15572;48.810;9.148;2023-06-26T15:00:02;98061.41;;;29.94;36.89
28312;BME280;15572;48.810;9.148;2023-06-26T15:04:59;98062.00;;;29.83;37.29
28312;BME280;15572;48.810;9.148;2023-06-26T15:09:57;98058.38;;;29.74;37.02
28312;BME280;15572;48.810;9.148;2023-06-26T15:14:53;98063.91;;;29.56;36.53
28312;BME280;15572;48.810;9.148;2023-06-26T15:19:50;98047.75;;;29.76;36.47
28312;BME280;15572;48.810;9.148;2023-06-26T15:24:47;98060.97;;;29.61;36.99
28312;BME280;15572;48.810;9.148;2023-06-26T15:29:45;98051.78;;;29.21;37.53
28312;BME280;15572;48.810;9.148;2023-06-26T15:34:41;98051.19;;;28.80;37.82
28312;BME280;15572;48.810;9.148;2023-06-26T15:39:38;98057.81;;;28.84;37.60
28312;BME280;15572;48.810;9.148;2023-06-26T15:44:34;98046.66;;;28.62;38.13
28312;BME280;15572;48.810;9.148;2023-06-26T15:49:32;98047.03;;;28.46;38.13
28312;BME280;15572;48.810;9.148;2023-06-26T15:54:28;98060.56;;;28.39;38.57
28312;BME280;15572;48.810;9.148;2023-06-26T15:59:25;98053.44;;;27.97;39.40
28312;BME280;15572;48.810;9.148;2023-06-26T16:04:21;98043.69;;;27.73;40.11
28312;BME280;15572;48.810;9.148;2023-06-26T16:09:19;98035.38;;;27.59;40.43
28312;BME280;15572;48.810;9.148;2023-06-26T16:14:16;98043.50;;;27.42;40.41
28312;BME280;15572;48.810;9.148;2023-06-26T16:19:13;98057.81;;;27.35;40.00
28312;BME280;15572;48.810;9.148;2023-06-26T16:24:09;98058.81;;;27.12;40.41
28312;BME280;15572;48.810;9.148;2023-06-26T16:29:07;98086.47;;;27.03;39.76
28312;BME280;15572;48.810;9.148;2023-06-26T16:34:03;98057.78;;;27.08;38.93
28312;BME280;15572;48.810;9.148;2023-06-26T16:39:00;98067.31;;;26.88;38.93
28312;BME280;15572;48.810;9.148;2023-06-26T16:43:58;98076.38;;;26.94;37.92
28312;BME280;15572;48.810;9.148;2023-06-26T16:48:55;98078.56;;;26.97;35.66
28312;BME280;15572;48.810;9.148;2023-06-26T16:53:52;98083.47;;;27.00;35.19
28312;BME280;15572;48.810;9.148;2023-06-26T16:58:48;98077.59;;;26.88;34.97
28312;BME280;15572;48.810;9.148;2023-06-26T17:03:45;98087.50;;;26.75;34.14
28312;BME280;15572;48.810;9.148;2023-06-26T17:08:43;98089.72;;;26.59;33.50
28312;BME280;15572;48.810;9.148;2023-06-26T17:13:39;98096.19;;;26.55;32.27
28312;BME280;15572;48.810;9.148;2023-06-26T17:18:37;98090.91;;;26.53;31.93
28312;BME280;15572;48.810;9.148;2023-06-26T17:23:33;98097.84;;;26.37;31.75
28312;BME280;15572;48.810;9.148;2023-06-26T17:28:31;98093.03;;;26.24;31.53
28312;BME280;15572;48.810;9.148;2023-06-26T17:33:28;98096.56;;;26.29;32.05
28312;BME280;15572;48.810;9.148;2023-06-26T17:38:24;98107.16;;;26.27;32.22
28312;BME280;15572;48.810;9.148;2023-06-26T17:43:20;98119.94;;;26.23;32.28
28312;BME280;15572;48.810;9.148;2023-06-26T17:48:18;98133.03;;;26.18;31.33
28312;BME280;15572;48.810;9.148;2023-06-26T17:53:16;98132.59;;;26.11;31.72
28312;BME280;15572;48.810;9.148;2023-06-26T17:58:13;98137.81;;;25.93;32.10
28312;BME280;15572;48.810;9.148;2023-06-26T18:03:09;98143.56;;;25.78;31.20
28312;BME280;15572;48.810;9.148;2023-06-26T18:08:07;98152.06;;;25.63;30.96
28312;BME280;15572;48.810;9.148;2023-06-26T18:13:05;98158.59;;;25.43;31.92
28312;BME280;15572;48.810;9.148;2023-06-26T18:18:02;98161.97;;;25.40;32.20
28312;BME280;15572;48.810;9.148;2023-06-26T18:22:58;98166.56;;;25.26;32.98
28312;BME280;15572;48.810;9.148;2023-06-26T18:27:56;98174.13;;;25.15;33.11
28312;BME280;15572;48.810;9.148;2023-06-26T18:32:53;98189.75;;;25.01;33.58
28312;BME280;15572;48.810;9.148;2023-06-26T18:37:49;98189.38;;;24.74;34.10
28312;BME280;15572;48.810;9.148;2023-06-26T18:42:46;98194.69;;;24.65;34.75
28312;BME280;15572;48.810;9.148;2023-06-26T18:47:44;98208.13;;;24.43;35.13
28312;BME280;15572;48.810;9.148;2023-06-26T18:52:40;98210.97;;;24.28;35.38
28312;BME280;15572;48.810;9.148;2023-06-26T18:57:37;98216.28;;;24.14;35.91
28312;BME280;15572;48.810;9.148;2023-06-26T19:02:35;98224.09;;;23.97;36.33
28312;BME280;15572;48.810;9.148;2023-06-26T19:07:33;98238.44;;;23.99;36.42
28312;BME280;15572;48.810;9.148;2023-06-26T19:12:30;98229.13;;;23.75;36.88
28312;BME280;15572;48.810;9.148;2023-06-26T19:17:26;98229.44;;;23.58;37.26
28312;BME280;15572;48.810;9.148;2023-06-26T19:22:24;98222.53;;;23.50;37.73
28312;BME280;15572;48.810;9.148;2023-06-26T19:27:23;98231.41;;;23.22;38.03
28312;BME280;15572;48.810;9.148;2023-06-26T19:32:20;98233.06;;;23.18;37.82
28312;BME280;15572;48.810;9.148;2023-06-26T19:37:16;98244.38;;;23.01;38.42
28312;BME280;15572;48.810;9.148;2023-06-26T19:42:13;98243.25;;;22.82;38.64
28312;BME280;15572;48.810;9.148;2023-06-26T19:47:10;98255.06;;;22.67;39.01
28312;BME280;15572;48.810;9.148;2023-06-26T19:52:07;98272.69;;;22.61;39.34
28312;BME280;15572;48.810;9.148;2023-06-26T19:57:04;98258.38;;;22.59;39.19
28312;BME280;15572;48.810;9.148;2023-06-26T20:02:06;98269.06;;;22.41;39.76
28312;BME280;15572;48.810;9.148;2023-06-26T20:07:05;98277.56;;;22.34;39.82
28312;BME280;15572;48.810;9.148;2023-06-26T20:12:01;98276.16;;;22.21;40.03
28312;BME280;15572;48.810;9.148;2023-06-26T20:16:58;98281.91;;;22.10;40.45
28312;BME280;15572;48.810;9.148;2023-06-26T20:21:57;98282.41;;;22.07;40.75
28312;BME280;15572;48.810;9.148;2023-06-26T20:26:55;98289.19;;;21.89;41.45
28312;BME280;15572;48.810;9.148;2023-06-26T20:31:51;98298.56;;;21.88;41.70
28312;BME280;15572;48.810;9.148;2023-06-26T20:36:48;98304.53;;;21.75;42.15
28312;BME280;15572;48.810;9.148;2023-06-26T20:41:45;98307.53;;;21.68;42.68
28312;BME280;15572;48.810;9.148;2023-06-26T20:46:44;98310.28;;;21.68;43.12
28312;BME280;15572;48.810;9.148;2023-06-26T20:51:50;98322.66;;;21.66;43.43
28312;BME280;15572;48.810;9.148;2023-06-26T20:56:47;98317.31;;;21.54;43.99
28312;BME280;15572;48.810;9.148;2023-06-26T21:01:45;98325.50;;;21.44;44.42
28312;BME280;15572;48.810;9.148;2023-06-26T21:06:41;98326.88;;;21.41;44.97
28312;BME280;15572;48.810;9.148;2023-06-26T21:11:38;98325.88;;;21.21;45.49
28312;BME280;15572;48.810;9.148;2023-06-26T21:16:34;98327.22;;;21.18;45.66
28312;BME280;15572;48.810;9.148;2023-06-26T21:21:32;98342.78;;;21.08;46.15
28312;BME280;15572;48.810;9.148;2023-06-26T21:26:29;98349.91;;;21.04;46.57
28312;BME280;15572;48.810;9.148;2023-06-26T21:31:25;98359.88;;;21.10;46.46
28312;BME280;15572;48.810;9.148;2023-06-26T21:36:22;98362.81;;;21.03;46.85
28312;BME280;15572;48.810;9.148;2023-06-26T21:41:19;98361.25;;;20.85;47.53
28312;BME280;15572;48.810;9.148;2023-06-26T21:46:16;98365.72;;;20.91;47.53
28312;BME280;15572;48.810;9.148;2023-06-26T21:51:12;98373.03;;;20.81;48.02
28312;BME280;15572;48.810;9.148;2023-06-26T21:56:09;98383.50;;;20.84;48.07
28312;BME280;15572;48.810;9.148;2023-06-26T22:01:07;98381.00;;;20.77;48.52
28312;BME280;15572;48.810;9.148;2023-06-26T22:06:03;98378.59;;;20.86;48.21
28312;BME280;15572;48.810;9.148;2023-06-26T22:11:00;98388.00;;;20.68;48.97
28312;BME280;15572;48.810;9.148;2023-06-26T22:15:56;98393.97;;;20.60;49.45
28312;BME280;15572;48.810;9.148;2023-06-26T22:20:54;98395.50;;;20.51;49.83
28312;BME280;15572;48.810;9.148;2023-06-26T22:25:51;98403.19;;;20.49;49.96
28312;BME280;15572;48.810;9.148;2023-06-26T22:30:47;98399.59;;;20.48;50.07
28312;BME280;15572;48.810;9.148;2023-06-26T22:35:44;98407.00;;;20.48;50.17
28312;BME280;15572;48.810;9.148;2023-06-26T22:40:41;98402.03;;;20.45;50.32
28312;BME280;15572;48.810;9.148;2023-06-26T22:45:38;98403.34;;;20.42;50.52
28312;BME280;15572;48.810;9.148;2023-06-26T22:50:34;98410.47;;;20.38;50.95
28312;BME280;15572;48.810;9.148;2023-06-26T22:55:31;98401.56;;;20.31;51.34
28312;BME280;15572;48.810;9.148;2023-06-26T23:00:29;98401.13;;;20.23;51.85
28312;BME280;15572;48.810;9.148;2023-06-26T23:05:26;98395.13;;;20.26;51.99
28312;BME280;15572;48.810;9.148;2023-06-26T23:10:23;98404.97;;;20.22;52.29
28312;BME280;15572;48.810;9.148;2023-06-26T23:15:20;98399.31;;;20.11;53.03
28312;BME280;15572;48.810;9.148;2023-06-26T23:20:18;98400.84;;;20.02;53.04
28312;BME280;15572;48.810;9.148;2023-06-26T23:25:15;98396.50;;;20.06;53.26
28312;BME280;15572;48.810;9.148;2023-06-26T23:30:12;98399.44;;;20.00;53.55
28312;BME280;15572;48.810;9.148;2023-06-26T23:35:09;98400.03;;;19.85;54.30
28312;BME280;15572;48.810;9.148;2023-06-26T23:40:08;98405.28;;;19.70;54.89
28312;BME280;15572;48.810;9.148;2023-06-26T23:45:06;98409.88;;;19.64;55.55
28312;BME280;15572;48.810;9.148;2023-06-26T23:50:03;98406.34;;;19.52;55.76
28312;BME280;15572;48.810;9.148;2023-06-26T23:54:59;98408.50;;;19.50;56.20
28312;BME280;15572;48.810;9.148;2023-06-26T23:59:57;98422.97;;;19.46;56.62
